Terminal Aerodrome Forecast
Issued by NWS

Current Version | Previous Version | Graphics & Text | Print | Product List | Glossary On
Versions: 1 2 3 4 5 6 7 8 9 10 11 12 13 14 15 16 17 18 19 20 21 22 23 24 25 26 27 28 29 30 31 32 33 34 35 36 37 38 39 40 41 42 43 44 45 46 47 48 49 50
000
FTUS41 KRNK 211843 AAA
TAFLWB
TAF AMD
KLWB 211843Z 2119/2218 13003KT P6SM SCT035 BKN045
     FM212200 14004KT P6SM VCTS BKN035CB
     FM220300 00000KT 4SM BR OVC025
     FM220600 00000KT 1SM -DZ BR SCT001 OVC015
      TEMPO 2209/2212 1/4SM FG OVC001
     FM221430 VRB03KT P6SM BKN025 BKN040=

USA.gov is the U.S. government's official web portal to all federal, state and local government web resources and services.